Aguia Branca, Brazil
Current Conditions -  °F | °C
As of 10:00 AM on Monday 20 Oct 2014 (Local Time) from SBVT Reporting Station
Scattered Clouds Scattered Clouds  
Wind Chill: 88°   Ceiling: Unl
Heat Index: 89°   Visibility: 5mi
Dew Point: 64°   Wind: 5mph
Humidity: 46%   Direction: 130°SE
Pressure: 29.91"   Gusts: NA
Location:  18.98°S, 40.74°W
Report Text: SBVT 201300Z 13004KT 8000 FEW030 SCT100 31/18 Q1013
Loading
Personal Weather Stations






























Interactive Weather Map
Tropical Storm Tracking
New forecast layout! Learn more

10-Day Weather Forecast

Advertisements
Track Severe Weather on mobile